sensor_id;sensor_type;location;lat;lon;timestamp;temperature;humidity
6810;DHT22;3443;48.812;9.112;2022-10-13T00:01:10;11.60;99.90
6810;DHT22;3443;48.812;9.112;2022-10-13T00:03:38;11.60;99.90
6810;DHT22;3443;48.812;9.112;2022-10-13T00:06:05;11.70;99.90
6810;DHT22;3443;48.812;9.112;2022-10-13T00:08:32;11.60;99.90
6810;DHT22;3443;48.812;9.112;2022-10-13T00:10:58;11.60;99.90
6810;DHT22;3443;48.812;9.112;2022-10-13T00:13:25;11.60;99.90
6810;DHT22;3443;48.812;9.112;2022-10-13T00:15:51;11.50;99.90
6810;DHT22;3443;48.812;9.112;2022-10-13T00:18:16;11.40;99.90
6810;DHT22;3443;48.812;9.112;2022-10-13T00:20:47;11.40;99.90
6810;DHT22;3443;48.812;9.112;2022-10-13T00:23:14;11.40;99.90
6810;DHT22;3443;48.812;9.112;2022-10-13T00:25:45;11.40;99.90
6810;DHT22;3443;48.812;9.112;2022-10-13T00:28:12;11.40;99.90
6810;DHT22;3443;48.812;9.112;2022-10-13T00:30:39;11.40;99.90
6810;DHT22;3443;48.812;9.112;2022-10-13T00:33:06;11.40;99.90
6810;DHT22;3443;48.812;9.112;2022-10-13T00:35:32;11.30;99.90
6810;DHT22;3443;48.812;9.112;2022-10-13T00:37:58;11.30;99.90
6810;DHT22;3443;48.812;9.112;2022-10-13T00:40:24;11.30;99.90
6810;DHT22;3443;48.812;9.112;2022-10-13T00:42:50;11.20;99.90
6810;DHT22;3443;48.812;9.112;2022-10-13T00:45:25;11.20;99.90
6810;DHT22;3443;48.812;9.112;2022-10-13T00:47:57;11.20;99.90
6810;DHT22;3443;48.812;9.112;2022-10-13T00:50:32;11.20;99.90
6810;DHT22;3443;48.812;9.112;2022-10-13T00:53:00;11.10;99.90
6810;DHT22;3443;48.812;9.112;2022-10-13T00:55:30;11.10;99.90
6810;DHT22;3443;48.812;9.112;2022-10-13T00:57:57;11.10;99.90
6810;DHT22;3443;48.812;9.112;2022-10-13T01:00:26;11.10;99.90
6810;DHT22;3443;48.812;9.112;2022-10-13T01:02:52;11.10;99.90
6810;DHT22;3443;48.812;9.112;2022-10-13T01:05:19;11.10;99.90
6810;DHT22;3443;48.812;9.112;2022-10-13T01:07:47;11.00;99.90
6810;DHT22;3443;48.812;9.112;2022-10-13T01:10:16;11.00;99.90
6810;DHT22;3443;48.812;9.112;2022-10-13T01:13:01;11.00;99.90
6810;DHT22;3443;48.812;9.112;2022-10-13T01:16:00;11.00;99.90
6810;DHT22;3443;48.812;9.112;2022-10-13T01:18:55;10.90;99.90
6810;DHT22;3443;48.812;9.112;2022-10-13T01:21:42;10.90;99.90
6810;DHT22;3443;48.812;9.112;2022-10-13T01:35:30;10.90;99.90
6810;DHT22;3443;48.812;9.112;2022-10-13T01:40:47;10.80;99.90
6810;DHT22;3443;48.812;9.112;2022-10-13T01:43:24;10.80;99.90
6810;DHT22;3443;48.812;9.112;2022-10-13T01:48:28;10.70;99.90
6810;DHT22;3443;48.812;9.112;2022-10-13T01:50:55;10.70;99.90
6810;DHT22;3443;48.812;9.112;2022-10-13T01:53:23;10.70;99.90
6810;DHT22;3443;48.812;9.112;2022-10-13T01:55:59;10.70;99.90
6810;DHT22;3443;48.812;9.112;2022-10-13T01:58:28;10.70;99.90
6810;DHT22;3443;48.812;9.112;2022-10-13T02:01:13;10.70;99.90
6810;DHT22;3443;48.812;9.112;2022-10-13T02:03:56;10.70;99.90
6810;DHT22;3443;48.812;9.112;2022-10-13T02:09:04;10.80;99.90
6810;DHT22;3443;48.812;9.112;2022-10-13T02:11:30;10.90;99.90
6810;DHT22;3443;48.812;9.112;2022-10-13T02:14:06;10.80;99.90
6810;DHT22;3443;48.812;9.112;2022-10-13T02:16:38;10.80;99.90
6810;DHT22;3443;48.812;9.112;2022-10-13T02:19:06;10.70;99.90
6810;DHT22;3443;48.812;9.112;2022-10-13T02:21:33;10.80;99.90
6810;DHT22;3443;48.812;9.112;2022-10-13T02:24:01;10.80;99.90
6810;DHT22;3443;48.812;9.112;2022-10-13T02:26:29;10.80;99.90
6810;DHT22;3443;48.812;9.112;2022-10-13T02:28:55;10.80;99.90
6810;DHT22;3443;48.812;9.112;2022-10-13T02:31:21;10.80;99.90
6810;DHT22;3443;48.812;9.112;2022-10-13T02:33:46;10.80;99.90
6810;DHT22;3443;48.812;9.112;2022-10-13T02:36:12;10.80;99.90
6810;DHT22;3443;48.812;9.112;2022-10-13T02:38:38;10.80;99.90
6810;DHT22;3443;48.812;9.112;2022-10-13T02:41:04;10.80;99.90
6810;DHT22;3443;48.812;9.112;2022-10-13T02:43:30;10.90;99.90
6810;DHT22;3443;48.812;9.112;2022-10-13T02:45:55;10.80;99.90
6810;DHT22;3443;48.812;9.112;2022-10-13T02:48:21;10.80;99.90
6810;DHT22;3443;48.812;9.112;2022-10-13T02:50:47;10.70;99.90
6810;DHT22;3443;48.812;9.112;2022-10-13T02:53:13;10.70;99.90
6810;DHT22;3443;48.812;9.112;2022-10-13T02:55:39;10.70;99.90
6810;DHT22;3443;48.812;9.112;2022-10-13T02:58:05;10.60;99.90
6810;DHT22;3443;48.812;9.112;2022-10-13T03:00:30;10.70;99.90
6810;DHT22;3443;48.812;9.112;2022-10-13T03:02:56;10.70;99.90
6810;DHT22;3443;48.812;9.112;2022-10-13T03:05:22;10.70;99.90
6810;DHT22;3443;48.812;9.112;2022-10-13T03:07:48;10.80;99.90
6810;DHT22;3443;48.812;9.112;2022-10-13T03:10:14;10.90;99.90
6810;DHT22;3443;48.812;9.112;2022-10-13T03:12:40;10.90;99.90
6810;DHT22;3443;48.812;9.112;2022-10-13T03:15:06;11.00;99.90
6810;DHT22;3443;48.812;9.112;2022-10-13T03:17:32;11.00;99.90
6810;DHT22;3443;48.812;9.112;2022-10-13T03:19:58;11.10;99.90
6810;DHT22;3443;48.812;9.112;2022-10-13T03:22:24;11.10;99.90
6810;DHT22;3443;48.812;9.112;2022-10-13T03:24:49;11.20;99.90
6810;DHT22;3443;48.812;9.112;2022-10-13T03:27:16;11.20;99.90
6810;DHT22;3443;48.812;9.112;2022-10-13T03:29:41;11.30;99.90
6810;DHT22;3443;48.812;9.112;2022-10-13T03:32:07;11.30;99.90
6810;DHT22;3443;48.812;9.112;2022-10-13T03:34:33;11.30;99.90
6810;DHT22;3443;48.812;9.112;2022-10-13T03:36:59;11.30;99.90
6810;DHT22;3443;48.812;9.112;2022-10-13T03:39:24;11.30;99.90
6810;DHT22;3443;48.812;9.112;2022-10-13T03:41:50;11.30;99.90
6810;DHT22;3443;48.812;9.112;2022-10-13T03:44:16;11.30;99.90
6810;DHT22;3443;48.812;9.112;2022-10-13T03:46:41;11.30;99.90
6810;DHT22;3443;48.812;9.112;2022-10-13T03:49:09;11.30;99.90
6810;DHT22;3443;48.812;9.112;2022-10-13T03:51:35;11.20;99.90
6810;DHT22;3443;48.812;9.112;2022-10-13T03:54:01;11.20;99.90
6810;DHT22;3443;48.812;9.112;2022-10-13T03:56:27;11.40;99.90
6810;DHT22;3443;48.812;9.112;2022-10-13T03:58:55;11.20;99.90
6810;DHT22;3443;48.812;9.112;2022-10-13T04:01:26;11.20;99.90
6810;DHT22;3443;48.812;9.112;2022-10-13T04:03:52;11.20;99.90
6810;DHT22;3443;48.812;9.112;2022-10-13T04:06:20;11.20;99.90
6810;DHT22;3443;48.812;9.112;2022-10-13T04:08:47;11.20;99.90
6810;DHT22;3443;48.812;9.112;2022-10-13T04:11:14;11.30;99.90
6810;DHT22;3443;48.812;9.112;2022-10-13T04:13:41;11.30;99.90
6810;DHT22;3443;48.812;9.112;2022-10-13T04:16:13;11.30;99.90
6810;DHT22;3443;48.812;9.112;2022-10-13T04:18:39;11.40;99.90
6810;DHT22;3443;48.812;9.112;2022-10-13T04:21:13;11.40;99.90
6810;DHT22;3443;48.812;9.112;2022-10-13T04:23:39;11.40;99.90
6810;DHT22;3443;48.812;9.112;2022-10-13T04:26:05;11.40;99.90
6810;DHT22;3443;48.812;9.112;2022-10-13T04:28:32;11.30;99.90
6810;DHT22;3443;48.812;9.112;2022-10-13T04:31:01;11.30;99.90
6810;DHT22;3443;48.812;9.112;2022-10-13T04:33:28;11.20;99.90
6810;DHT22;3443;48.812;9.112;2022-10-13T04:35:53;11.20;99.90
6810;DHT22;3443;48.812;9.112;2022-10-13T04:38:19;11.20;99.90
6810;DHT22;3443;48.812;9.112;2022-10-13T04:40:45;11.20;99.90
6810;DHT22;3443;48.812;9.112;2022-10-13T04:43:11;11.20;99.90
6810;DHT22;3443;48.812;9.112;2022-10-13T04:45:37;11.20;99.90
6810;DHT22;3443;48.812;9.112;2022-10-13T04:48:03;11.20;99.90
6810;DHT22;3443;48.812;9.112;2022-10-13T04:50:29;11.20;99.90
6810;DHT22;3443;48.812;9.112;2022-10-13T04:52:54;11.20;99.90
6810;DHT22;3443;48.812;9.112;2022-10-13T04:55:20;11.20;99.90
6810;DHT22;3443;48.812;9.112;2022-10-13T04:57:46;11.10;99.90
6810;DHT22;3443;48.812;9.112;2022-10-13T05:00:12;11.10;99.90
6810;DHT22;3443;48.812;9.112;2022-10-13T05:02:38;11.10;99.90
6810;DHT22;3443;48.812;9.112;2022-10-13T05:05:04;11.10;99.90
6810;DHT22;3443;48.812;9.112;2022-10-13T05:07:30;11.00;99.90
6810;DHT22;3443;48.812;9.112;2022-10-13T05:09:56;11.10;99.90
6810;DHT22;3443;48.812;9.112;2022-10-13T05:12:22;11.00;99.90
6810;DHT22;3443;48.812;9.112;2022-10-13T05:14:48;11.10;99.90
6810;DHT22;3443;48.812;9.112;2022-10-13T05:17:14;11.10;99.90
6810;DHT22;3443;48.812;9.112;2022-10-13T05:19:39;11.20;99.90
6810;DHT22;3443;48.812;9.112;2022-10-13T05:22:05;11.20;99.90
6810;DHT22;3443;48.812;9.112;2022-10-13T05:24:31;11.20;99.90
6810;DHT22;3443;48.812;9.112;2022-10-13T05:27:05;11.30;99.90
6810;DHT22;3443;48.812;9.112;2022-10-13T05:29:31;11.30;99.90
6810;DHT22;3443;48.812;9.112;2022-10-13T05:31:57;11.30;99.90
6810;DHT22;3443;48.812;9.112;2022-10-13T05:34:22;11.30;99.90
6810;DHT22;3443;48.812;9.112;2022-10-13T05:36:48;11.30;99.90
6810;DHT22;3443;48.812;9.112;2022-10-13T05:39:14;11.30;99.90
6810;DHT22;3443;48.812;9.112;2022-10-13T05:41:39;11.30;99.90
6810;DHT22;3443;48.812;9.112;2022-10-13T05:44:08;11.30;99.90
6810;DHT22;3443;48.812;9.112;2022-10-13T05:46:34;11.30;99.90
6810;DHT22;3443;48.812;9.112;2022-10-13T05:49:01;11.30;99.90
6810;DHT22;3443;48.812;9.112;2022-10-13T05:51:34;11.30;99.90
6810;DHT22;3443;48.812;9.112;2022-10-13T05:54:18;11.40;99.90
6810;DHT22;3443;48.812;9.112;2022-10-13T05:56:52;11.40;99.90
6810;DHT22;3443;48.812;9.112;2022-10-13T05:59:19;11.40;99.90
6810;DHT22;3443;48.812;9.112;2022-10-13T06:01:45;11.50;99.90
6810;DHT22;3443;48.812;9.112;2022-10-13T06:04:16;11.50;99.90
6810;DHT22;3443;48.812;9.112;2022-10-13T06:06:42;11.50;99.90
6810;DHT22;3443;48.812;9.112;2022-10-13T06:09:09;11.60;99.90
6810;DHT22;3443;48.812;9.112;2022-10-13T06:11:35;11.60;99.90
6810;DHT22;3443;48.812;9.112;2022-10-13T06:14:01;11.60;99.90
6810;DHT22;3443;48.812;9.112;2022-10-13T06:16:26;11.70;99.90
6810;DHT22;3443;48.812;9.112;2022-10-13T06:18:52;11.70;99.90
6810;DHT22;3443;48.812;9.112;2022-10-13T06:21:18;11.70;99.90
6810;DHT22;3443;48.812;9.112;2022-10-13T06:23:43;11.70;99.90
6810;DHT22;3443;48.812;9.112;2022-10-13T06:26:09;11.70;99.90
6810;DHT22;3443;48.812;9.112;2022-10-13T06:28:35;11.70;99.90
6810;DHT22;3443;48.812;9.112;2022-10-13T06:31:03;11.70;99.90
6810;DHT22;3443;48.812;9.112;2022-10-13T06:33:29;11.70;99.90
6810;DHT22;3443;48.812;9.112;2022-10-13T06:35:55;11.80;99.90
6810;DHT22;3443;48.812;9.112;2022-10-13T06:38:21;11.70;99.90
6810;DHT22;3443;48.812;9.112;2022-10-13T06:40:47;11.70;99.90
6810;DHT22;3443;48.812;9.112;2022-10-13T06:43:13;11.70;99.90
6810;DHT22;3443;48.812;9.112;2022-10-13T06:45:38;11.70;99.90
6810;DHT22;3443;48.812;9.112;2022-10-13T06:48:04;11.70;99.90
6810;DHT22;3443;48.812;9.112;2022-10-13T06:50:31;11.80;99.90
6810;DHT22;3443;48.812;9.112;2022-10-13T06:52:56;11.80;99.90
6810;DHT22;3443;48.812;9.112;2022-10-13T06:55:22;11.90;99.90
6810;DHT22;3443;48.812;9.112;2022-10-13T06:57:48;11.90;99.90
6810;DHT22;3443;48.812;9.112;2022-10-13T07:00:13;11.90;99.90
6810;DHT22;3443;48.812;9.112;2022-10-13T07:02:39;11.90;99.90
6810;DHT22;3443;48.812;9.112;2022-10-13T07:05:06;11.90;99.90
6810;DHT22;3443;48.812;9.112;2022-10-13T07:07:31;12.00;99.90
6810;DHT22;3443;48.812;9.112;2022-10-13T07:09:57;12.00;99.90
6810;DHT22;3443;48.812;9.112;2022-10-13T07:12:23;12.10;99.90
6810;DHT22;3443;48.812;9.112;2022-10-13T07:14:49;12.10;99.90
6810;DHT22;3443;48.812;9.112;2022-10-13T07:17:14;12.20;99.90
6810;DHT22;3443;48.812;9.112;2022-10-13T07:19:40;12.20;99.90
6810;DHT22;3443;48.812;9.112;2022-10-13T07:22:06;12.30;99.90
6810;DHT22;3443;48.812;9.112;2022-10-13T07:24:31;12.30;99.90
6810;DHT22;3443;48.812;9.112;2022-10-13T07:26:57;12.40;99.90
6810;DHT22;3443;48.812;9.112;2022-10-13T07:29:23;12.40;99.90
6810;DHT22;3443;48.812;9.112;2022-10-13T07:31:48;12.50;99.90
6810;DHT22;3443;48.812;9.112;2022-10-13T07:34:15;12.50;99.90
6810;DHT22;3443;48.812;9.112;2022-10-13T07:36:41;12.60;99.90
6810;DHT22;3443;48.812;9.112;2022-10-13T07:39:08;12.70;99.90
6810;DHT22;3443;48.812;9.112;2022-10-13T07:41:35;12.80;99.90
6810;DHT22;3443;48.812;9.112;2022-10-13T07:44:01;12.90;99.90
6810;DHT22;3443;48.812;9.112;2022-10-13T07:46:26;13.00;99.90
6810;DHT22;3443;48.812;9.112;2022-10-13T07:48:53;13.10;99.90
6810;DHT22;3443;48.812;9.112;2022-10-13T07:51:20;13.20;99.90
6810;DHT22;3443;48.812;9.112;2022-10-13T07:53:46;13.20;99.90
6810;DHT22;3443;48.812;9.112;2022-10-13T07:56:14;13.30;99.90
6810;DHT22;3443;48.812;9.112;2022-10-13T07:58:42;13.50;99.90
6810;DHT22;3443;48.812;9.112;2022-10-13T08:01:09;13.60;99.90
6810;DHT22;3443;48.812;9.112;2022-10-13T08:03:35;13.70;99.90
6810;DHT22;3443;48.812;9.112;2022-10-13T08:06:03;13.80;99.90
6810;DHT22;3443;48.812;9.112;2022-10-13T08:08:30;13.90;99.90
6810;DHT22;3443;48.812;9.112;2022-10-13T08:11:01;13.90;99.90
6810;DHT22;3443;48.812;9.112;2022-10-13T08:13:27;13.90;99.90
6810;DHT22;3443;48.812;9.112;2022-10-13T08:15:52;13.90;99.90
6810;DHT22;3443;48.812;9.112;2022-10-13T08:18:18;13.90;99.90
6810;DHT22;3443;48.812;9.112;2022-10-13T08:20:45;13.90;99.90
6810;DHT22;3443;48.812;9.112;2022-10-13T08:23:12;13.90;99.90
6810;DHT22;3443;48.812;9.112;2022-10-13T08:25:42;13.90;99.90
6810;DHT22;3443;48.812;9.112;2022-10-13T08:28:22;14.00;99.90
6810;DHT22;3443;48.812;9.112;2022-10-13T08:30:48;14.00;99.90
6810;DHT22;3443;48.812;9.112;2022-10-13T08:33:25;14.10;99.90
6810;DHT22;3443;48.812;9.112;2022-10-13T08:35:52;14.30;99.90
6810;DHT22;3443;48.812;9.112;2022-10-13T08:38:18;14.60;99.90
6810;DHT22;3443;48.812;9.112;2022-10-13T08:40:48;14.80;99.90
6810;DHT22;3443;48.812;9.112;2022-10-13T08:43:17;15.00;99.90
6810;DHT22;3443;48.812;9.112;2022-10-13T08:45:43;15.00;99.90
6810;DHT22;3443;48.812;9.112;2022-10-13T08:48:17;15.40;99.90
6810;DHT22;3443;48.812;9.112;2022-10-13T08:50:46;15.20;99.90
6810;DHT22;3443;48.812;9.112;2022-10-13T08:53:36;15.30;99.90
6810;DHT22;3443;48.812;9.112;2022-10-13T08:58:40;15.30;99.90
6810;DHT22;3443;48.812;9.112;2022-10-13T09:01:19;15.40;99.90
6810;DHT22;3443;48.812;9.112;2022-10-13T09:06:44;15.40;99.90
6810;DHT22;3443;48.812;9.112;2022-10-13T09:09:13;15.50;99.90
6810;DHT22;3443;48.812;9.112;2022-10-13T09:11:42;15.60;99.90
6810;DHT22;3443;48.812;9.112;2022-10-13T09:14:12;15.60;99.90
6810;DHT22;3443;48.812;9.112;2022-10-13T09:16:44;15.70;99.90
6810;DHT22;3443;48.812;9.112;2022-10-13T09:21:44;15.80;99.90
6810;DHT22;3443;48.812;9.112;2022-10-13T09:24:16;15.80;99.90
6810;DHT22;3443;48.812;9.112;2022-10-13T09:26:43;15.80;99.90
6810;DHT22;3443;48.812;9.112;2022-10-13T09:29:33;15.80;99.90
6810;DHT22;3443;48.812;9.112;2022-10-13T09:32:24;15.90;99.90
6810;DHT22;3443;48.812;9.112;2022-10-13T09:34:50;15.90;99.90
6810;DHT22;3443;48.812;9.112;2022-10-13T09:37:24;16.00;99.90
6810;DHT22;3443;48.812;9.112;2022-10-13T09:40:12;16.00;99.90
6810;DHT22;3443;48.812;9.112;2022-10-13T09:42:38;16.00;99.90
6810;DHT22;3443;48.812;9.112;2022-10-13T09:45:16;16.00;99.90
6810;DHT22;3443;48.812;9.112;2022-10-13T09:48:03;16.00;99.90
6810;DHT22;3443;48.812;9.112;2022-10-13T09:50:31;16.00;99.90
6810;DHT22;3443;48.812;9.112;2022-10-13T09:55:47;16.10;99.90
6810;DHT22;3443;48.812;9.112;2022-10-13T09:58:29;16.00;99.90
6810;DHT22;3443;48.812;9.112;2022-10-13T10:00:56;16.00;99.90
6810;DHT22;3443;48.812;9.112;2022-10-13T10:03:25;16.10;99.90
6810;DHT22;3443;48.812;9.112;2022-10-13T10:05:53;16.00;99.90
6810;DHT22;3443;48.812;9.112;2022-10-13T10:08:48;16.00;99.90
6810;DHT22;3443;48.812;9.112;2022-10-13T10:11:49;16.00;99.90
6810;DHT22;3443;48.812;9.112;2022-10-13T10:16:55;16.20;99.90
6810;DHT22;3443;48.812;9.112;2022-10-13T10:19:25;16.20;99.90
6810;DHT22;3443;48.812;9.112;2022-10-13T10:22:06;16.20;99.90
6810;DHT22;3443;48.812;9.112;2022-10-13T10:27:19;16.00;99.90
6810;DHT22;3443;48.812;9.112;2022-10-13T10:29:54;15.90;99.90
6810;DHT22;3443;48.812;9.112;2022-10-13T10:32:41;15.90;99.90
6810;DHT22;3443;48.812;9.112;2022-10-13T10:40:48;15.90;99.90
6810;DHT22;3443;48.812;9.112;2022-10-13T10:45:46;15.90;99.90
6810;DHT22;3443;48.812;9.112;2022-10-13T10:48:20;15.90;99.90
6810;DHT22;3443;48.812;9.112;2022-10-13T10:50:49;15.90;99.90
6810;DHT22;3443;48.812;9.112;2022-10-13T10:53:36;15.90;99.90
6810;DHT22;3443;48.812;9.112;2022-10-13T10:56:36;15.90;99.90
6810;DHT22;3443;48.812;9.112;2022-10-13T10:59:24;16.00;99.90
6810;DHT22;3443;48.812;9.112;2022-10-13T11:02:10;15.90;99.90
6810;DHT22;3443;48.812;9.112;2022-10-13T11:04:43;15.90;99.90
6810;DHT22;3443;48.812;9.112;2022-10-13T11:07:11;15.90;99.90
6810;DHT22;3443;48.812;9.112;2022-10-13T11:17:27;16.00;99.90
6810;DHT22;3443;48.812;9.112;2022-10-13T11:19:54;16.10;99.90
6810;DHT22;3443;48.812;9.112;2022-10-13T11:22:28;16.20;99.90
6810;DHT22;3443;48.812;9.112;2022-10-13T11:24:57;16.30;99.90
6810;DHT22;3443;48.812;9.112;2022-10-13T11:29:57;16.50;99.90
6810;DHT22;3443;48.812;9.112;2022-10-13T11:51:55;16.70;99.90
6810;DHT22;3443;48.812;9.112;2022-10-13T11:54:42;16.80;99.90
6810;DHT22;3443;48.812;9.112;2022-10-13T11:57:24;16.90;99.90
6810;DHT22;3443;48.812;9.112;2022-10-13T11:59:52;17.10;99.90
6810;DHT22;3443;48.812;9.112;2022-10-13T12:02:21;17.30;99.90
6810;DHT22;3443;48.812;9.112;2022-10-13T12:05:06;17.40;99.90
6810;DHT22;3443;48.812;9.112;2022-10-13T12:07:38;17.50;99.90
6810;DHT22;3443;48.812;9.112;2022-10-13T12:10:06;17.50;99.90
6810;DHT22;3443;48.812;9.112;2022-10-13T12:12:33;17.50;99.90
6810;DHT22;3443;48.812;9.112;2022-10-13T12:14:59;17.50;99.90
6810;DHT22;3443;48.812;9.112;2022-10-13T12:19:54;17.60;99.90
6810;DHT22;3443;48.812;9.112;2022-10-13T12:22:20;17.50;99.90
6810;DHT22;3443;48.812;9.112;2022-10-13T12:25:00;17.40;99.90
6810;DHT22;3443;48.812;9.112;2022-10-13T12:27:28;17.60;99.90
6810;DHT22;3443;48.812;9.112;2022-10-13T12:29:57;17.60;99.90
6810;DHT22;3443;48.812;9.112;2022-10-13T12:32:26;17.70;99.90
6810;DHT22;3443;48.812;9.112;2022-10-13T12:34:52;17.80;99.90
6810;DHT22;3443;48.812;9.112;2022-10-13T12:39:51;18.00;99.90
6810;DHT22;3443;48.812;9.112;2022-10-13T12:42:17;18.00;99.90
6810;DHT22;3443;48.812;9.112;2022-10-13T12:44:43;18.00;99.90
6810;DHT22;3443;48.812;9.112;2022-10-13T12:53:10;18.10;99.90
6810;DHT22;3443;48.812;9.112;2022-10-13T12:56:03;18.10;99.90
6810;DHT22;3443;48.812;9.112;2022-10-13T12:58:31;18.20;99.90
6810;DHT22;3443;48.812;9.112;2022-10-13T13:01:06;18.10;99.90
6810;DHT22;3443;48.812;9.112;2022-10-13T13:03:34;18.10;99.90
6810;DHT22;3443;48.812;9.112;2022-10-13T13:08:41;18.10;99.90
6810;DHT22;3443;48.812;9.112;2022-10-13T13:11:21;18.10;99.90
6810;DHT22;3443;48.812;9.112;2022-10-13T13:13:48;18.10;99.90
6810;DHT22;3443;48.812;9.112;2022-10-13T13:16:21;18.00;99.90
6810;DHT22;3443;48.812;9.112;2022-10-13T13:18:49;17.90;99.90
6810;DHT22;3443;48.812;9.112;2022-10-13T13:21:17;17.90;99.90
6810;DHT22;3443;48.812;9.112;2022-10-13T13:23:43;17.90;99.90
6810;DHT22;3443;48.812;9.112;2022-10-13T13:28:44;17.80;99.90
6810;DHT22;3443;48.812;9.112;2022-10-13T13:31:11;17.80;99.90
6810;DHT22;3443;48.812;9.112;2022-10-13T13:33:37;17.70;99.90
6810;DHT22;3443;48.812;9.112;2022-10-13T13:36:04;17.70;99.90
6810;DHT22;3443;48.812;9.112;2022-10-13T13:38:34;17.80;99.90
6810;DHT22;3443;48.812;9.112;2022-10-13T13:41:00;17.70;99.90
6810;DHT22;3443;48.812;9.112;2022-10-13T13:43:26;17.80;99.90
6810;DHT22;3443;48.812;9.112;2022-10-13T13:45:52;17.80;99.90
6810;DHT22;3443;48.812;9.112;2022-10-13T13:48:17;17.70;99.90
6810;DHT22;3443;48.812;9.112;2022-10-13T13:50:43;17.70;99.90
6810;DHT22;3443;48.812;9.112;2022-10-13T13:53:09;17.70;99.90
6810;DHT22;3443;48.812;9.112;2022-10-13T13:55:35;17.70;99.90
6810;DHT22;3443;48.812;9.112;2022-10-13T13:58:00;17.60;99.90
6810;DHT22;3443;48.812;9.112;2022-10-13T14:00:26;17.50;99.90
6810;DHT22;3443;48.812;9.112;2022-10-13T14:02:52;17.40;99.90
6810;DHT22;3443;48.812;9.112;2022-10-13T14:05:18;17.30;99.90
6810;DHT22;3443;48.812;9.112;2022-10-13T14:07:43;17.30;99.90
6810;DHT22;3443;48.812;9.112;2022-10-13T14:10:09;17.20;99.90
6810;DHT22;3443;48.812;9.112;2022-10-13T14:12:35;17.10;99.90
6810;DHT22;3443;48.812;9.112;2022-10-13T14:15:01;17.00;99.90
6810;DHT22;3443;48.812;9.112;2022-10-13T14:17:27;17.00;99.90
6810;DHT22;3443;48.812;9.112;2022-10-13T14:19:53;17.00;99.90
6810;DHT22;3443;48.812;9.112;2022-10-13T14:22:20;17.10;99.90
6810;DHT22;3443;48.812;9.112;2022-10-13T14:24:46;17.10;99.90
6810;DHT22;3443;48.812;9.112;2022-10-13T14:27:12;17.10;99.90
6810;DHT22;3443;48.812;9.112;2022-10-13T14:29:37;17.00;99.90
6810;DHT22;3443;48.812;9.112;2022-10-13T14:32:03;17.00;99.90
6810;DHT22;3443;48.812;9.112;2022-10-13T14:34:29;17.00;99.90
6810;DHT22;3443;48.812;9.112;2022-10-13T14:36:55;16.90;99.90
6810;DHT22;3443;48.812;9.112;2022-10-13T14:39:20;16.80;99.90
6810;DHT22;3443;48.812;9.112;2022-10-13T14:41:46;16.70;99.90
6810;DHT22;3443;48.812;9.112;2022-10-13T14:44:13;16.60;99.90
6810;DHT22;3443;48.812;9.112;2022-10-13T14:46:40;16.50;99.90
6810;DHT22;3443;48.812;9.112;2022-10-13T14:49:06;16.50;99.90
6810;DHT22;3443;48.812;9.112;2022-10-13T14:51:32;16.40;99.90
6810;DHT22;3443;48.812;9.112;2022-10-13T14:53:58;16.30;99.90
6810;DHT22;3443;48.812;9.112;2022-10-13T14:56:27;16.20;99.90
6810;DHT22;3443;48.812;9.112;2022-10-13T14:58:59;16.20;99.90
6810;DHT22;3443;48.812;9.112;2022-10-13T15:01:25;16.10;99.90
6810;DHT22;3443;48.812;9.112;2022-10-13T15:03:51;16.10;99.90
6810;DHT22;3443;48.812;9.112;2022-10-13T15:06:19;16.10;99.90
6810;DHT22;3443;48.812;9.112;2022-10-13T15:08:46;16.10;99.90
6810;DHT22;3443;48.812;9.112;2022-10-13T15:11:12;16.00;99.90
6810;DHT22;3443;48.812;9.112;2022-10-13T15:13:39;16.00;99.90
6810;DHT22;3443;48.812;9.112;2022-10-13T15:16:05;16.00;99.90
6810;DHT22;3443;48.812;9.112;2022-10-13T15:18:32;16.00;99.90
6810;DHT22;3443;48.812;9.112;2022-10-13T15:20:59;16.00;99.90
6810;DHT22;3443;48.812;9.112;2022-10-13T15:23:25;16.00;99.90
6810;DHT22;3443;48.812;9.112;2022-10-13T15:25:56;16.00;99.90
6810;DHT22;3443;48.812;9.112;2022-10-13T15:28:24;16.00;99.90
6810;DHT22;3443;48.812;9.112;2022-10-13T15:30:50;15.90;99.90
6810;DHT22;3443;48.812;9.112;2022-10-13T15:33:17;15.90;99.90
6810;DHT22;3443;48.812;9.112;2022-10-13T15:35:43;15.80;99.90
6810;DHT22;3443;48.812;9.112;2022-10-13T15:38:11;15.80;99.90
6810;DHT22;3443;48.812;9.112;2022-10-13T15:40:40;15.70;99.90
6810;DHT22;3443;48.812;9.112;2022-10-13T15:43:06;15.60;99.90
6810;DHT22;3443;48.812;9.112;2022-10-13T15:45:32;15.60;99.90
6810;DHT22;3443;48.812;9.112;2022-10-13T15:47:58;15.60;99.90
6810;DHT22;3443;48.812;9.112;2022-10-13T15:50:24;15.50;99.90
6810;DHT22;3443;48.812;9.112;2022-10-13T15:52:50;15.50;99.90
6810;DHT22;3443;48.812;9.112;2022-10-13T15:55:16;15.50;99.90
6810;DHT22;3443;48.812;9.112;2022-10-13T15:57:43;15.50;99.90
6810;DHT22;3443;48.812;9.112;2022-10-13T16:00:11;15.40;99.90
6810;DHT22;3443;48.812;9.112;2022-10-13T16:02:37;15.40;99.90
6810;DHT22;3443;48.812;9.112;2022-10-13T16:05:03;15.30;99.90
6810;DHT22;3443;48.812;9.112;2022-10-13T16:07:31;15.30;99.90
6810;DHT22;3443;48.812;9.112;2022-10-13T16:09:56;15.30;99.90
6810;DHT22;3443;48.812;9.112;2022-10-13T16:12:22;15.20;99.90
6810;DHT22;3443;48.812;9.112;2022-10-13T16:14:51;15.20;99.90
6810;DHT22;3443;48.812;9.112;2022-10-13T16:17:17;15.10;99.90
6810;DHT22;3443;48.812;9.112;2022-10-13T16:19:42;15.10;99.90
6810;DHT22;3443;48.812;9.112;2022-10-13T16:22:08;15.10;99.90
6810;DHT22;3443;48.812;9.112;2022-10-13T16:24:34;15.10;99.90
6810;DHT22;3443;48.812;9.112;2022-10-13T16:27:00;15.10;99.90
6810;DHT22;3443;48.812;9.112;2022-10-13T16:29:26;15.00;99.90
6810;DHT22;3443;48.812;9.112;2022-10-13T16:31:52;15.00;99.90
6810;DHT22;3443;48.812;9.112;2022-10-13T16:34:19;14.90;99.90
6810;DHT22;3443;48.812;9.112;2022-10-13T16:36:45;14.90;99.90
6810;DHT22;3443;48.812;9.112;2022-10-13T16:39:11;14.90;99.90
6810;DHT22;3443;48.812;9.112;2022-10-13T16:41:37;14.90;99.90
6810;DHT22;3443;48.812;9.112;2022-10-13T16:44:03;14.80;99.90
6810;DHT22;3443;48.812;9.112;2022-10-13T16:46:29;14.80;99.90
6810;DHT22;3443;48.812;9.112;2022-10-13T16:48:55;14.80;99.90
6810;DHT22;3443;48.812;9.112;2022-10-13T16:51:23;14.70;99.90
6810;DHT22;3443;48.812;9.112;2022-10-13T16:53:50;14.70;99.90
6810;DHT22;3443;48.812;9.112;2022-10-13T16:56:17;14.60;99.90
6810;DHT22;3443;48.812;9.112;2022-10-13T16:59:00;14.60;99.90
6810;DHT22;3443;48.812;9.112;2022-10-13T17:01:27;14.60;99.90
6810;DHT22;3443;48.812;9.112;2022-10-13T17:03:54;14.60;99.90
6810;DHT22;3443;48.812;9.112;2022-10-13T17:06:22;14.60;99.90
6810;DHT22;3443;48.812;9.112;2022-10-13T17:08:48;14.60;99.90
6810;DHT22;3443;48.812;9.112;2022-10-13T17:11:17;14.60;99.90
6810;DHT22;3443;48.812;9.112;2022-10-13T17:13:43;14.60;99.90
6810;DHT22;3443;48.812;9.112;2022-10-13T17:16:09;14.50;99.90
6810;DHT22;3443;48.812;9.112;2022-10-13T17:18:35;14.60;99.90
6810;DHT22;3443;48.812;9.112;2022-10-13T17:21:03;14.50;99.90
6810;DHT22;3443;48.812;9.112;2022-10-13T17:23:30;14.50;99.90
6810;DHT22;3443;48.812;9.112;2022-10-13T17:26:00;14.50;99.90
6810;DHT22;3443;48.812;9.112;2022-10-13T17:28:26;14.50;99.90
6810;DHT22;3443;48.812;9.112;2022-10-13T17:31:00;14.40;99.90
6810;DHT22;3443;48.812;9.112;2022-10-13T17:33:27;14.40;99.90
6810;DHT22;3443;48.812;9.112;2022-10-13T17:36:01;14.30;99.90
6810;DHT22;3443;48.812;9.112;2022-10-13T17:38:27;14.30;99.90
6810;DHT22;3443;48.812;9.112;2022-10-13T17:40:57;14.30;99.90